Time;durP1;ratioP1;P1;durP2;ratioP2;P2;SDS_P1;SDS_P2;PMS_P1;PMS_P2;Temp;Humidity;BMP_temperature;BMP_pressure;BME280_temperature;BME280_humidity;BME280_pressure;Samples;Min_cycle;Max_cycle;Signal;HPM_P1;HPM_P2
2021/04/07 00:01:55;;;;;;;9.43;1.23;;;1.30;91.90;;;;;;5070535;28;20052;-70
2021/04/07 00:04:21;;;;;;;12.07;0.87;;;1.30;91.90;;;;;;5076116;28;20028;-70
2021/04/07 00:06:47;;;;;;;12.80;1.20;;;1.20;91.80;;;;;;5076006;28;20062;-71
2021/04/07 00:09:13;;;;;;;8.73;0.90;;;1.20;91.80;;;;;;5057792;28;20091;-70
2021/04/07 00:11:39;;;;;;;12.97;1.43;;;1.20;91.80;;;;;;5057957;28;20025;-71
2021/04/07 00:14:07;;;;;;;8.37;1.00;;;1.20;91.80;;;;;;5075624;28;20052;-70
2021/04/07 00:16:33;;;;;;;13.03;1.20;;;1.20;91.70;;;;;;5075992;28;20449;-70
2021/04/07 00:18:59;;;;;;;7.13;0.90;;;1.10;91.60;;;;;;5089451;28;20043;-70
2021/04/07 00:21:24;;;;;;;6.30;1.00;;;1.10;91.60;;;;;;5095624;28;20024;-70
2021/04/07 00:23:50;;;;;;;12.27;1.17;;;1.10;91.50;;;;;;5095782;28;20082;-70
2021/04/07 00:26:16;;;;;;;11.27;1.07;;;1.00;91.60;;;;;;5077566;28;20050;-71
2021/04/07 00:28:41;;;;;;;13.03;1.10;;;1.00;91.60;;;;;;5077365;28;20055;-71
2021/04/07 00:31:07;;;;;;;8.97;1.50;;;1.00;91.60;;;;;;5095514;28;20081;-71
2021/04/07 00:33:32;;;;;;;12.93;0.97;;;0.80;91.70;;;;;;5077484;28;20375;-71
2021/04/07 00:35:58;;;;;;;6.83;1.17;;;0.90;91.90;;;;;;5076967;28;20032;-71
2021/04/07 00:38:24;;;;;;;10.53;1.40;;;0.90;91.90;;;;;;5077055;28;20134;-70
2021/04/07 00:40:49;;;;;;;8.60;1.37;;;0.90;92.00;;;;;;5095523;28;20104;-70
2021/04/07 00:43:15;;;;;;;8.00;1.10;;;0.80;92.00;;;;;;5077240;28;20075;-71
2021/04/07 00:45:41;;;;;;;9.77;1.10;;;0.90;92.20;;;;;;5095337;28;20054;-70
2021/04/07 00:48:07;;;;;;;6.70;1.17;;;1.00;92.50;;;;;;5095247;28;20028;-71
2021/04/07 00:50:33;;;;;;;10.73;1.87;;;0.90;92.30;;;;;;5076981;28;20036;-71
2021/04/07 00:52:59;;;;;;;7.40;1.40;;;0.90;92.20;;;;;;5095110;28;20050;-71
2021/04/07 00:55:29;;;;;;;6.30;1.47;;;0.90;92.20;;;;;;5077065;28;20028;-71
2021/04/07 00:57:55;;;;;;;5.83;1.30;;;1.00;92.40;;;;;;5095175;28;20418;-72
2021/04/07 01:00:22;;;;;;;12.90;2.70;;;1.00;92.40;;;;;;5095003;28;20336;-71
2021/04/07 01:02:55;;;;;;;19.97;4.37;;;1.00;92.50;;;;;;5095049;28;20020;-70
2021/04/07 01:05:21;;;;;;;19.00;5.40;;;1.00;92.70;;;;;;5076682;28;20127;-72
2021/04/07 01:07:47;;;;;;;20.03;8.07;;;1.00;92.70;;;;;;5076342;28;20028;-71
2021/04/07 01:10:13;;;;;;;26.40;8.93;;;1.10;93.00;;;;;;5094555;28;20168;-71
2021/04/07 01:12:43;;;;;;;21.10;9.40;;;1.10;93.00;;;;;;5094450;28;20027;-71
2021/04/07 01:15:11;;;;;;;28.73;8.87;;;1.10;93.00;;;;;;5094604;28;20052;-71
2021/04/07 01:17:37;;;;;;;18.87;8.20;;;1.10;93.10;;;;;;5094179;28;20036;-71
2021/04/07 01:20:06;;;;;;;19.47;7.00;;;1.10;93.20;;;;;;5076642;28;20536;-71
2021/04/07 01:22:35;;;;;;;15.67;5.37;;;1.10;93.20;;;;;;5059540;28;20114;-71
2021/04/07 01:25:01;;;;;;;21.20;4.97;;;1.20;93.40;;;;;;5094131;28;20035;-71
2021/04/07 01:27:27;;;;;;;15.93;4.80;;;1.20;93.30;;;;;;5076574;28;20016;-71
2021/04/07 01:29:52;;;;;;;18.30;4.20;;;1.20;93.30;;;;;;5094386;28;20016;-71
2021/04/07 01:32:18;;;;;;;12.40;3.77;;;1.20;93.30;;;;;;5094321;28;20484;-71
2021/04/07 01:34:44;;;;;;;21.57;5.20;;;1.20;93.40;;;;;;5059526;28;20035;-71
2021/04/07 01:37:12;;;;;;;12.70;4.20;;;1.30;93.50;;;;;;5076193;28;20383;-71
2021/04/07 01:39:38;;;;;;;21.00;5.37;;;1.30;93.50;;;;;;5094090;28;20028;-71
2021/04/07 01:42:05;;;;;;;16.47;4.33;;;1.30;93.70;;;;;;5075720;28;20097;-73
2021/04/07 01:44:33;;;;;;;19.70;3.83;;;1.30;93.80;;;;;;5094192;28;20019;-71
2021/04/07 01:47:00;;;;;;;15.57;3.97;;;1.40;94.10;;;;;;5059178;28;20079;-72
2021/04/07 01:49:27;;;;;;;15.03;3.07;;;1.30;94.30;;;;;;5075234;28;20129;-71
2021/04/07 01:51:55;;;;;;;12.97;2.30;;;1.30;94.30;;;;;;5075523;28;20475;-72
2021/04/07 01:54:21;;;;;;;11.50;2.27;;;1.40;94.50;;;;;;5075621;28;20111;-71
2021/04/07 01:56:52;;;;;;;9.90;2.63;;;1.40;94.50;;;;;;5093380;28;20122;-71
2021/04/07 01:59:21;;;;;;;12.30;2.93;;;1.40;94.60;;;;;;5093564;28;20494;-71
2021/04/07 02:01:47;;;;;;;12.63;3.03;;;1.40;94.60;;;;;;5093883;28;20494;-71
2021/04/07 02:04:16;;;;;;;12.50;2.97;;;1.40;94.70;;;;;;5093476;28;20051;-71
2021/04/07 02:06:42;;;;;;;7.90;2.37;;;1.40;94.60;;;;;;5093529;28;20024;-71
2021/04/07 02:09:09;;;;;;;13.03;1.97;;;1.40;94.60;;;;;;5093973;28;20027;-71
2021/04/07 02:11:38;;;;;;;13.00;3.10;;;1.40;94.70;;;;;;5093764;28;20525;-71
2021/04/07 02:14:04;;;;;;;10.60;2.63;;;1.40;94.70;;;;;;5093012;28;20090;-71
2021/04/07 02:16:29;;;;;;;10.80;2.53;;;1.50;94.60;;;;;;5093585;28;20492;-71
2021/04/07 02:18:55;;;;;;;10.00;2.20;;;1.40;94.50;;;;;;5058812;28;20032;-71
2021/04/07 02:21:20;;;;;;;10.30;2.13;;;1.40;94.50;;;;;;5042368;28;20116;-71
2021/04/07 02:23:46;;;;;;;8.03;1.90;;;1.50;94.60;;;;;;5075392;28;20395;-71
2021/04/07 02:26:12;;;;;;;8.33;1.80;;;1.50;94.60;;;;;;5075390;28;20384;-77
2021/04/07 02:28:38;;;;;;;5.77;2.20;;;1.50;94.60;;;;;;5075130;28;20590;-76
2021/04/07 02:31:03;;;;;;;8.53;1.97;;;1.60;94.60;;;;;;5074823;28;20119;-76
2021/04/07 02:33:29;;;;;;;7.43;1.90;;;1.60;94.60;;;;;;5075120;28;20026;-77
2021/04/07 02:35:55;;;;;;;7.87;2.03;;;1.60;94.60;;;;;;5075140;28;20016;-77
2021/04/07 02:38:21;;;;;;;5.60;2.10;;;1.60;94.60;;;;;;5075217;28;20031;-77
2021/04/07 02:40:47;;;;;;;10.93;2.27;;;1.60;94.60;;;;;;5075233;28;20028;-77
2021/04/07 02:43:13;;;;;;;7.47;2.30;;;1.60;94.60;;;;;;5093268;28;20028;-77
2021/04/07 02:45:38;;;;;;;6.77;1.70;;;1.60;94.60;;;;;;5092975;28;20032;-77
2021/04/07 02:48:04;;;;;;;6.47;1.47;;;1.60;94.80;;;;;;5093180;28;20024;-77
2021/04/07 02:50:30;;;;;;;5.13;1.17;;;1.60;94.50;;;;;;5075226;28;20453;-77
2021/04/07 02:52:55;;;;;;;8.13;1.10;;;1.60;94.50;;;;;;5058319;28;20113;-77
2021/04/07 02:55:21;;;;;;;4.77;1.20;;;1.60;94.50;;;;;;5058705;28;20028;-77
2021/04/07 02:57:47;;;;;;;6.63;1.20;;;1.60;94.40;;;;;;5093160;28;20111;-77
2021/04/07 03:00:14;;;;;;;8.50;1.27;;;1.60;94.40;;;;;;5094359;28;20020;-76
2021/04/07 03:02:39;;;;;;;6.93;1.23;;;1.60;94.40;;;;;;5097083;28;20051;-78
2021/04/07 03:05:06;;;;;;;4.90;1.10;;;1.60;94.40;;;;;;5062490;28;20060;-77
2021/04/07 03:07:31;;;;;;;6.07;1.53;;;1.60;94.40;;;;;;5062590;28;20111;-77
2021/04/07 03:09:57;;;;;;;6.57;1.53;;;1.60;94.50;;;;;;5097155;28;20498;-78
2021/04/07 03:12:23;;;;;;;6.17;1.70;;;1.60;94.60;;;;;;5079362;28;20134;-77
2021/04/07 03:14:48;;;;;;;6.80;2.40;;;1.60;94.50;;;;;;5079041;28;20048;-77
2021/04/07 03:17:14;;;;;;;9.13;2.70;;;1.60;94.60;;;;;;5079368;28;20329;-77
2021/04/07 03:19:40;;;;;;;12.23;2.20;;;1.60;94.70;;;;;;5076474;28;20037;-78
2021/04/07 03:22:05;;;;;;;8.03;1.70;;;1.60;94.70;;;;;;5076560;28;20032;-78
2021/04/07 03:24:32;;;;;;;6.87;1.93;;;1.60;94.90;;;;;;5058794;28;20025;-77
2021/04/07 03:26:58;;;;;;;7.17;1.53;;;1.50;94.90;;;;;;5058599;28;20031;-78
2021/04/07 03:29:23;;;;;;;9.20;1.93;;;1.50;94.90;;;;;;5076590;28;20037;-77
2021/04/07 03:31:49;;;;;;;5.13;1.70;;;1.50;95.00;;;;;;5058772;28;20032;-78
2021/04/07 03:34:15;;;;;;;7.87;1.67;;;1.50;95.10;;;;;;5076231;28;20096;-78
2021/04/07 03:36:40;;;;;;;7.40;2.10;;;1.50;95.20;;;;;;5058713;28;20419;-78
2021/04/07 03:39:06;;;;;;;6.03;1.47;;;1.50;95.30;;;;;;5076050;28;20494;-77
2021/04/07 03:41:31;;;;;;;13.17;2.30;;;1.50;95.20;;;;;;5076266;28;20025;-77
2021/04/07 03:43:57;;;;;;;9.17;1.60;;;1.50;95.30;;;;;;5076032;28;20404;-79
2021/04/07 03:46:23;;;;;;;8.63;2.73;;;1.50;95.40;;;;;;5058263;28;20033;-78
2021/04/07 03:48:48;;;;;;;9.33;1.70;;;1.50;95.50;;;;;;5076598;28;20065;-79
2021/04/07 03:51:14;;;;;;;8.70;1.50;;;1.50;95.50;;;;;;5088253;28;20051;-78
2021/04/07 03:53:40;;;;;;;7.33;1.50;;;1.50;95.50;;;;;;5078228;28;20491;-78
2021/04/07 03:56:06;;;;;;;8.90;1.67;;;1.50;95.50;;;;;;5095998;28;20039;-78
2021/04/07 03:58:32;;;;;;;11.00;1.20;;;1.50;95.50;;;;;;5077741;28;20095;-77
2021/04/07 04:00:57;;;;;;;6.53;1.40;;;1.60;95.60;;;;;;5089230;28;20065;-77
2021/04/07 04:03:23;;;;;;;7.00;1.10;;;1.60;95.60;;;;;;5057321;28;20358;-78
2021/04/07 04:05:49;;;;;;;4.27;1.03;;;1.50;95.60;;;;;;5040874;28;20024;-78
2021/04/07 04:08:15;;;;;;;6.63;0.90;;;1.60;95.60;;;;;;5094131;28;20349;-78
2021/04/07 04:10:42;;;;;;;8.13;1.30;;;1.60;95.60;;;;;;5096145;28;20032;-78
2021/04/07 04:13:07;;;;;;;6.93;1.53;;;1.50;95.60;;;;;;5095177;28;20032;-78
2021/04/07 04:15:34;;;;;;;6.70;1.27;;;1.60;95.60;;;;;;5060771;28;20151;-78
2021/04/07 04:18:00;;;;;;;7.57;1.67;;;1.50;95.60;;;;;;5095987;28;20032;-78
2021/04/07 04:20:27;;;;;;;9.40;2.20;;;1.50;95.60;;;;;;5096111;28;20107;-71
2021/04/07 04:22:52;;;;;;;9.23;2.07;;;1.50;95.70;;;;;;5077566;28;20074;-71
2021/04/07 04:25:21;;;;;;;6.50;1.93;;;1.50;95.70;;;;;;5095715;28;20028;-77
2021/04/07 04:27:48;;;;;;;8.27;1.60;;;1.50;95.70;;;;;;5095666;28;20129;-77
2021/04/07 04:30:16;;;;;;;7.37;1.60;;;1.50;95.80;;;;;;5077564;28;20094;-79
2021/04/07 04:32:42;;;;;;;8.90;1.80;;;1.50;95.80;;;;;;5095618;28;20080;-76
2021/04/07 04:35:09;;;;;;;6.53;1.37;;;1.50;95.80;;;;;;5095852;28;20103;-78
2021/04/07 04:37:35;;;;;;;10.73;1.80;;;1.50;95.80;;;;;;5077692;28;20175;-78
2021/04/07 04:40:00;;;;;;;8.50;1.27;;;1.50;95.80;;;;;;5077202;28;20075;-77
2021/04/07 04:42:26;;;;;;;4.10;1.30;;;1.50;95.90;;;;;;5095410;28;20024;-77
2021/04/07 04:44:52;;;;;;;4.80;1.30;;;1.50;95.80;;;;;;5077397;28;20134;-77
2021/04/07 04:47:18;;;;;;;4.87;1.43;;;1.50;95.80;;;;;;5077706;28;20122;-77
2021/04/07 04:49:43;;;;;;;4.57;1.30;;;1.50;95.80;;;;;;5095915;28;20040;-77
2021/04/07 04:52:09;;;;;;;9.17;1.50;;;1.50;95.80;;;;;;5077294;28;20377;-77
2021/04/07 04:54:35;;;;;;;7.40;1.50;;;1.60;95.80;;;;;;5077320;28;20420;-78
2021/04/07 04:57:00;;;;;;;8.57;1.50;;;1.60;95.80;;;;;;5077034;28;20028;-78
2021/04/07 04:59:26;;;;;;;6.10;1.30;;;1.60;95.80;;;;;;5095080;28;20028;-78
2021/04/07 05:01:52;;;;;;;7.40;1.23;;;1.60;95.80;;;;;;5077187;28;20043;-77
2021/04/07 05:04:18;;;;;;;5.80;1.10;;;1.60;95.80;;;;;;5076850;28;20052;-77
2021/04/07 05:06:43;;;;;;;10.03;1.63;;;1.60;96.00;;;;;;5060373;28;20074;-78
2021/04/07 05:09:09;;;;;;;5.33;1.20;;;1.60;95.90;;;;;;5093222;28;20036;-78
2021/04/07 05:11:35;;;;;;;6.63;1.50;;;1.60;95.90;;;;;;5077000;28;20032;-78
2021/04/07 05:14:01;;;;;;;9.63;1.53;;;1.60;95.90;;;;;;5094839;28;20060;-78
2021/04/07 05:16:28;;;;;;;4.57;1.40;;;1.70;96.00;;;;;;5094629;28;20024;-78
2021/04/07 05:18:53;;;;;;;9.03;1.40;;;1.70;96.10;;;;;;5095086;28;20089;-77
2021/04/07 05:21:19;;;;;;;7.60;2.07;;;1.60;96.10;;;;;;5094686;28;20028;-78
2021/04/07 05:23:45;;;;;;;8.53;2.03;;;1.60;96.40;;;;;;5094517;28;20055;-77
2021/04/07 05:26:11;;;;;;;8.67;2.07;;;1.60;96.20;;;;;;5070011;28;20024;-77
2021/04/07 05:28:40;;;;;;;8.80;2.10;;;1.60;96.50;;;;;;5076210;28;20035;-78
2021/04/07 05:31:05;;;;;;;7.30;2.40;;;1.70;96.30;;;;;;5075719;28;20031;-79
2021/04/07 05:33:34;;;;;;;7.60;2.40;;;1.70;96.30;;;;;;5094256;28;20028;-77
2021/04/07 05:36:06;;;;;;;8.80;3.10;;;1.70;96.30;;;;;;5093868;28;20028;-71
2021/04/07 05:38:33;;;;;;;7.37;2.97;;;1.70;96.30;;;;;;5075027;28;20494;-71
2021/04/07 05:40:59;;;;;;;7.50;2.90;;;1.70;96.30;;;;;;5093888;28;20035;-78
2021/04/07 05:43:27;;;;;;;7.23;2.30;;;1.70;96.30;;;;;;5094435;28;20065;-78
2021/04/07 05:45:53;;;;;;;5.63;2.20;;;1.80;96.30;;;;;;5068419;28;20031;-78
2021/04/07 05:48:19;;;;;;;6.60;2.40;;;1.70;96.30;;;;;;5039515;28;20032;-78
2021/04/07 05:50:47;;;;;;;5.30;2.00;;;1.80;96.30;;;;;;5074163;28;20036;-80
2021/04/07 05:53:13;;;;;;;4.30;2.40;;;1.70;96.20;;;;;;5074741;28;20119;-78
2021/04/07 05:55:43;;;;;;;8.87;2.57;;;1.70;96.20;;;;;;5094468;28;20178;-81
2021/04/07 05:58:10;;;;;;;6.40;3.00;;;1.70;96.20;;;;;;5075808;28;20055;-78
2021/04/07 06:00:36;;;;;;;7.23;2.60;;;1.60;96.20;;;;;;5076212;28;20030;-77
2021/04/07 06:03:03;;;;;;;4.73;2.17;;;1.60;96.30;;;;;;5093776;28;20446;-79
2021/04/07 06:05:29;;;;;;;5.70;2.73;;;1.60;96.30;;;;;;5075959;28;20123;-80
2021/04/07 06:07:56;;;;;;;6.43;3.07;;;1.60;96.40;;;;;;5075565;28;20059;-78
2021/04/07 06:10:22;;;;;;;7.33;2.83;;;1.60;96.50;;;;;;5093659;28;20024;-82
2021/04/07 06:12:48;;;;;;;11.70;3.83;;;1.60;96.50;;;;;;5075451;28;20028;-80
2021/04/07 06:15:15;;;;;;;10.70;4.27;;;1.60;96.50;;;;;;5093598;28;20059;-80
2021/04/07 06:17:42;;;;;;;9.33;3.30;;;1.70;96.60;;;;;;5058814;28;20024;-81
2021/04/07 06:20:10;;;;;;;9.30;3.47;;;1.60;96.70;;;;;;5075225;28;20064;-78
2021/04/07 06:22:37;;;;;;;9.80;3.60;;;1.70;96.70;;;;;;5075128;28;20050;-78
2021/04/07 06:25:06;;;;;;;11.37;4.17;;;1.80;96.80;;;;;;5093277;28;20052;-77
2021/04/07 06:27:32;;;;;;;7.63;4.13;;;1.80;96.70;;;;;;5093307;28;20017;-77
2021/04/07 06:30:00;;;;;;;8.47;4.27;;;1.80;96.60;;;;;;5093540;28;20039;-77
2021/04/07 06:32:30;;;;;;;8.37;3.83;;;1.90;96.70;;;;;;5059492;28;20476;-76
2021/04/07 06:34:56;;;;;;;9.17;4.40;;;1.90;96.60;;;;;;5075179;28;20105;-77
2021/04/07 06:37:21;;;;;;;7.03;3.47;;;1.90;96.70;;;;;;5075680;28;20368;-77
2021/04/07 06:39:47;;;;;;;8.27;3.73;;;2.00;96.70;;;;;;5042264;28;20024;-76
2021/04/07 06:42:14;;;;;;;8.40;4.60;;;2.00;96.70;;;;;;5075372;28;20073;-76
2021/04/07 06:44:40;;;;;;;10.50;4.87;;;2.00;96.70;;;;;;5093910;28;20056;-77
2021/04/07 06:47:06;;;;;;;10.33;5.27;;;2.10;96.90;;;;;;5093699;28;20028;-77
2021/04/07 06:49:33;;;;;;;10.67;4.90;;;2.10;96.90;;;;;;5058841;28;20052;-78
2021/04/07 06:52:02;;;;;;;10.87;4.77;;;2.20;97.00;;;;;;5075317;28;20069;-76
2021/04/07 06:54:28;;;;;;;7.83;4.80;;;2.20;97.00;;;;;;5075208;28;20476;-76
2021/04/07 06:56:54;;;;;;;9.77;4.60;;;2.30;97.00;;;;;;5075609;28;20034;-77
2021/04/07 06:59:21;;;;;;;9.43;4.70;;;2.30;97.00;;;;;;5093342;28;20032;-77
2021/04/07 07:01:46;;;;;;;12.63;4.33;;;2.40;97.00;;;;;;5075206;28;20031;-77
2021/04/07 07:04:12;;;;;;;15.37;5.10;;;2.40;97.10;;;;;;5042328;28;20380;-77
2021/04/07 07:06:37;;;;;;;8.87;4.97;;;2.50;97.20;;;;;;5041879;28;20398;-76
2021/04/07 07:09:18;;;;;;;9.93;4.73;;;2.60;97.30;;;;;;5093543;28;20024;-77
2021/04/07 07:11:53;;;;;;;10.70;4.00;;;2.70;97.40;;;;;;5093424;28;20107;-76
2021/04/07 07:14:20;;;;;;;12.37;4.70;;;2.80;97.30;;;;;;5090847;28;20056;-76
2021/04/07 07:16:51;;;;;;;9.80;3.70;;;2.90;97.40;;;;;;5075176;28;20036;-76
2021/04/07 07:19:24;;;;;;;11.90;4.60;;;3.00;97.40;;;;;;5075407;28;20101;-76
2021/04/07 07:21:55;;;;;;;8.23;3.45;;;3.00;97.30;;;;;;5058677;28;20065;-76
2021/04/07 07:24:35;;;;;;;14.37;4.70;;;3.10;97.30;;;;;;5075329;28;20028;-76
2021/04/07 07:27:04;;;;;;;14.87;4.40;;;3.10;97.20;;;;;;5075017;28;20161;-76
2021/04/07 07:29:33;;;;;;;11.70;4.17;;;3.20;97.20;;;;;;5074852;28;20024;-76
2021/04/07 07:32:07;;;;;;;11.03;4.90;;;3.30;97.30;;;;;;5075564;28;20367;-76
2021/04/07 07:34:34;;;;;;;14.77;3.70;;;3.40;97.50;;;;;;5093460;28;20379;-76
2021/04/07 07:37:02;;;;;;;11.53;4.30;;;3.40;97.40;;;;;;5093265;28;20505;-76
2021/04/07 07:39:34;;;;;;;9.83;3.80;;;3.50;97.40;;;;;;5093187;28;20043;-77
2021/04/07 07:42:08;;;;;;;14.13;3.87;;;3.60;97.40;;;;;;5093246;28;20032;-76
2021/04/07 07:44:37;;;;;;;13.65;3.33;;;3.60;97.40;;;;;;5092948;28;20028;-76
2021/04/07 07:47:15;;;;;;;14.10;4.23;;;3.70;97.50;;;;;;5093835;28;20041;-76
2021/04/07 07:49:41;;;;;;;9.33;3.07;;;3.80;97.50;;;;;;5096968;28;20357;-76
2021/04/07 07:52:07;;;;;;;9.53;2.50;;;3.90;97.60;;;;;;5096709;28;20035;-77
2021/04/07 07:54:32;;;;;;;13.97;1.97;;;4.00;97.70;;;;;;5096434;28;20066;-77
2021/04/07 07:56:58;;;;;;;15.77;2.17;;;4.10;97.70;;;;;;5078208;28;20032;-77
2021/04/07 07:59:31;;;;;;;11.50;1.10;;;4.30;97.80;;;;;;5078322;28;20119;-76
2021/04/07 08:01:57;;;;;;;9.40;1.30;;;4.40;97.70;;;;;;5079063;28;20058;-77
2021/04/07 08:04:23;;;;;;;6.00;0.90;;;4.50;97.60;;;;;;5078425;28;20028;-78
2021/04/07 08:06:49;;;;;;;16.40;1.20;;;4.60;97.50;;;;;;5078411;28;20040;-78
2021/04/07 08:09:15;;;;;;;8.73;1.23;;;4.70;97.30;;;;;;5096201;28;20020;-78
2021/04/07 08:11:46;;;;;;;9.07;1.07;;;4.80;97.20;;;;;;5096629;28;20399;-77
2021/04/07 08:14:14;;;;;;;9.33;1.40;;;4.90;97.00;;;;;;5077813;28;20051;-79
2021/04/07 08:16:40;;;;;;;8.30;0.87;;;5.00;96.80;;;;;;5077896;28;20463;-79
2021/04/07 08:19:06;;;;;;;11.17;1.30;;;5.20;96.70;;;;;;5078333;28;20036;-78
2021/04/07 08:21:34;;;;;;;14.50;2.03;;;5.30;96.40;;;;;;5061269;28;20038;-78
2021/04/07 08:24:04;;;;;;;24.17;2.60;;;5.40;96.30;;;;;;5077963;28;20115;-75
2021/04/07 08:26:36;;;;;;;21.73;2.53;;;5.50;95.50;;;;;;5078061;28;20377;-79
2021/04/07 08:29:03;;;;;;;16.63;2.00;;;5.60;95.60;;;;;;5077789;28;20559;-78
2021/04/07 08:31:28;;;;;;;14.40;2.00;;;5.70;95.40;;;;;;5077980;28;20040;-77
2021/04/07 08:33:56;;;;;;;18.40;2.63;;;5.80;95.30;;;;;;5061020;28;20390;-78
2021/04/07 08:36:25;;;;;;;22.13;3.17;;;5.80;94.90;;;;;;5095876;28;20116;-78
2021/04/07 08:39:06;;;;;;;21.27;2.63;;;5.80;94.70;;;;;;5077457;28;20391;-78
2021/04/07 08:41:32;;;;;;;29.40;4.40;;;5.90;94.60;;;;;;5077615;28;20055;-77
2021/04/07 08:44:00;;;;;;;26.50;3.60;;;5.90;94.60;;;;;;5061074;28;20032;-78
2021/04/07 08:46:28;;;;;;;14.27;2.13;;;5.90;94.60;;;;;;5095572;28;20024;-78
2021/04/07 08:48:55;;;;;;;24.60;3.23;;;6.00;94.30;;;;;;5095420;28;20054;-78
2021/04/07 08:51:24;;;;;;;17.77;2.80;;;6.10;94.40;;;;;;5077484;28;20032;-78
2021/04/07 08:53:55;;;;;;;19.13;2.97;;;6.30;94.10;;;;;;5095380;28;20077;-77
2021/04/07 08:56:34;;;;;;;23.57;3.80;;;6.40;93.90;;;;;;5095383;28;20101;-80
2021/04/07 08:59:04;;;;;;;19.80;3.03;;;6.50;93.40;;;;;;5077367;28;20029;-80
2021/04/07 09:01:29;;;;;;;25.40;3.23;;;6.50;93.20;;;;;;5077256;28;20082;-77
2021/04/07 09:04:33;;;;;;;34.63;4.60;;;6.50;93.10;;;;;;5077052;28;20024;-79
2021/04/07 09:07:01;;;;;;;22.93;3.20;;;6.40;92.90;;;;;;5076815;28;20062;-78
2021/04/07 09:09:27;;;;;;;19.97;2.60;;;6.40;92.90;;;;;;5095324;28;20405;-78
2021/04/07 09:11:54;;;;;;;17.17;2.17;;;6.30;91.90;;;;;;5060299;28;20057;-78
2021/04/07 09:14:21;;;;;;;17.57;2.27;;;6.30;91.50;;;;;;5076804;28;20052;-77
2021/04/07 09:16:47;;;;;;;20.27;3.10;;;6.20;91.70;;;;;;5094883;28;20056;-73
2021/04/07 09:19:24;;;;;;;20.90;2.87;;;6.20;91.90;;;;;;5059795;28;20116;-76
2021/04/07 09:22:00;;;;;;;19.07;2.53;;;6.20;91.90;;;;;;5077069;28;20020;-73
2021/04/07 09:24:33;;;;;;;25.17;4.63;;;6.20;92.40;;;;;;5076626;28;20035;-74
2021/04/07 09:26:59;;;;;;;18.10;2.78;;;6.30;92.50;;;;;;5094786;28;20099;-77
2021/04/07 09:29:26;;;;;;;22.83;3.13;;;6.60;92.10;;;;;;5060130;28;20582;-73
2021/04/07 09:31:53;;;;;;;20.67;3.13;;;6.70;92.30;;;;;;5059880;28;20020;-75
2021/04/07 09:34:19;;;;;;;24.83;3.57;;;7.00;91.90;;;;;;5076669;28;20025;-78
2021/04/07 09:36:48;;;;;;;22.70;3.50;;;7.30;91.00;;;;;;5094997;28;20024;-74
2021/04/07 09:39:23;;;;;;;15.07;2.60;;;7.50;90.60;;;;;;5060314;28;20463;-74
2021/04/07 09:41:50;;;;;;;19.53;2.77;;;7.60;90.60;;;;;;5094640;28;20028;-75
2021/04/07 09:44:17;;;;;;;20.43;3.20;;;7.70;89.00;;;;;;5094614;28;20074;-75
2021/04/07 09:46:55;;;;;;;15.57;2.57;;;7.80;87.30;;;;;;5094323;28;20024;-74
2021/04/07 09:49:24;;;;;;;18.70;2.20;;;7.90;88.70;;;;;;5059776;28;20035;-75
2021/04/07 09:51:50;;;;;;;17.47;2.53;;;7.80;87.30;;;;;;5075717;28;20483;-74
2021/04/07 09:54:37;;;;;;;17.30;2.93;;;7.70;87.40;;;;;;5093925;28;20026;-74
2021/04/07 09:57:04;;;;;;;14.90;2.53;;;7.60;88.50;;;;;;5076033;28;20471;-72
2021/04/07 09:59:44;;;;;;;13.83;2.93;;;7.50;87.00;;;;;;5094134;28;20028;-74
2021/04/07 10:02:29;;;;;;;11.83;1.40;;;7.40;86.80;;;;;;5075957;28;20020;-73
2021/04/07 10:04:56;;;;;;;17.10;2.30;;;7.30;87.00;;;;;;5076564;28;20479;-76
2021/04/07 10:07:27;;;;;;;16.87;2.30;;;7.30;87.60;;;;;;5075631;28;20020;-74
2021/04/07 10:09:57;;;;;;;15.87;2.73;;;7.40;88.40;;;;;;5074728;28;20028;-74
2021/04/07 10:12:30;;;;;;;17.43;3.23;;;7.40;88.20;;;;;;5075684;28;20024;-75
2021/04/07 10:14:58;;;;;;;13.70;2.13;;;7.50;87.30;;;;;;5091287;28;20044;-75
2021/04/07 10:17:32;;;;;;;25.47;3.13;;;7.50;87.50;;;;;;5075696;28;20035;-76
2021/04/07 10:20:15;;;;;;;23.05;2.20;;;7.50;86.70;;;;;;5093770;28;20042;-73
2021/04/07 10:22:42;;;;;;;17.87;3.03;;;7.40;85.60;;;;;;5075294;28;20016;-73
2021/04/07 10:27:40;;;;;;;17.73;1.97;;;7.40;86.20;;;;;;5094109;28;20028;-73
2021/04/07 10:30:07;;;;;;;18.47;2.20;;;7.60;86.00;;;;;;5075779;28;20039;-74
2021/04/07 10:32:42;;;;;;;17.40;2.50;;;7.60;85.80;;;;;;5093585;28;20024;-76
2021/04/07 10:35:24;;;;;;;19.87;2.63;;;7.60;84.10;;;;;;5093695;28;20024;-75
2021/04/07 10:38:07;;;;;;;11.47;1.60;;;7.50;83.30;;;;;;5093697;28;20028;-73
2021/04/07 10:40:35;;;;;;;16.07;1.80;;;7.40;84.30;;;;;;5093845;28;20032;-75
2021/04/07 10:43:19;;;;;;;13.20;1.70;;;7.30;84.40;;;;;;5075259;28;20021;-75
2021/04/07 10:46:05;;;;;;;14.32;1.80;;;7.50;84.10;;;;;;5093423;28;20035;-75
2021/04/07 10:48:31;;;;;;;17.47;1.97;;;7.50;84.10;;;;;;5074294;28;20032;-76
2021/04/07 10:50:58;;;;;;;13.63;2.30;;;7.50;83.90;;;;;;5075275;28;20078;-76
2021/04/07 10:53:36;;;;;;;18.33;2.27;;;7.40;82.10;;;;;;5093371;28;20055;-76
2021/04/07 10:56:16;;;;;;;16.43;2.40;;;7.20;82.30;;;;;;5075122;28;20031;-73
2021/04/07 10:58:43;;;;;;;17.40;2.30;;;7.00;84.90;;;;;;5075433;28;20036;-75
2021/04/07 11:01:09;;;;;;;14.03;2.27;;;6.80;84.50;;;;;;5075438;28;20103;-74
2021/04/07 11:03:35;;;;;;;14.37;1.90;;;6.70;85.60;;;;;;5058934;28;20024;-76
2021/04/07 11:06:02;;;;;;;21.60;1.50;;;6.70;86.30;;;;;;5075437;28;20086;-73
2021/04/07 11:08:36;;;;;;;17.77;2.17;;;6.80;86.70;;;;;;5093699;28;20476;-73
2021/04/07 11:11:02;;;;;;;14.07;2.03;;;7.00;87.30;;;;;;5093652;28;20103;-74
2021/04/07 11:13:28;;;;;;;12.47;1.90;;;7.30;88.20;;;;;;5075235;28;20375;-75
2021/04/07 11:15:54;;;;;;;16.40;2.50;;;7.90;87.30;;;;;;5074862;28;20048;-77
2021/04/07 11:18:29;;;;;;;17.90;2.57;;;8.60;83.90;;;;;;5075063;28;20032;-77
2021/04/07 11:20:55;;;;;;;13.30;2.30;;;8.80;80.10;;;;;;5093393;28;20432;-78
2021/04/07 11:23:21;;;;;;;24.50;3.77;;;8.80;77.20;;;;;;5045887;28;20420;-77
2021/04/07 11:25:47;;;;;;;20.30;2.10;;;8.70;76.60;;;;;;5062200;28;20028;-74
2021/04/07 11:28:20;;;;;;;17.17;2.40;;;8.50;77.30;;;;;;5079083;28;20513;-76
2021/04/07 11:39:34;;;;;;;13.50;2.10;;;7.60;79.70;;;;;;5097074;28;20028;-76
2021/04/07 11:41:55;;;;;;;16.40;2.07;;;7.50;79.90;;;;;;5076863;28;20053;-76
2021/04/07 11:46:47;;;;;;;18.83;3.63;;;7.40;80.90;;;;;;5062457;28;20028;-74
2021/04/07 11:49:12;;;;;;;15.50;1.90;;;7.40;81.10;;;;;;5096593;28;20058;-73
2021/04/07 11:51:41;;;;;;;16.70;2.40;;;7.50;81.40;;;;;;5061550;28;20068;-74
2021/04/07 11:54:09;;;;;;;19.20;3.57;;;7.60;81.20;;;;;;5096500;28;20414;-75
2021/04/07 11:56:37;;;;;;;18.83;2.30;;;7.80;81.00;;;;;;5078460;28;20020;-73
2021/04/07 11:59:04;;;;;;;12.13;1.80;;;8.10;80.50;;;;;;5078275;28;20020;-72
2021/04/07 12:01:30;;;;;;;20.17;2.00;;;8.20;80.10;;;;;;5078904;28;20023;-73
2021/04/07 12:03:55;;;;;;;10.93;1.70;;;8.30;78.50;;;;;;5078814;28;20028;-75
2021/04/07 12:06:21;;;;;;;20.23;3.17;;;8.30;75.00;;;;;;5061955;28;20073;-74
2021/04/07 12:08:47;;;;;;;19.03;2.70;;;8.20;76.20;;;;;;5061584;28;20062;-73
2021/04/07 12:11:14;;;;;;;15.97;2.07;;;8.10;75.70;;;;;;5096664;28;20024;-75
2021/04/07 12:13:40;;;;;;;18.60;2.73;;;8.00;73.50;;;;;;5096296;28;20365;-74
2021/04/07 12:16:05;;;;;;;12.40;1.73;;;7.90;74.50;;;;;;5091907;28;20044;-74
2021/04/07 12:18:31;;;;;;;13.37;1.70;;;7.80;74.20;;;;;;5077846;28;20094;-75
2021/04/07 12:20:57;;;;;;;9.83;1.70;;;7.70;73.10;;;;;;5096169;28;20468;-74
2021/04/07 12:23:23;;;;;;;7.50;1.20;;;7.50;71.60;;;;;;5078412;28;20043;-75
2021/04/07 12:25:49;;;;;;;14.80;1.43;;;7.30;73.50;;;;;;5061105;28;20020;-72
2021/04/07 12:28:14;;;;;;;9.30;1.27;;;7.20;73.50;;;;;;5061151;28;20020;-72
2021/04/07 12:30:49;;;;;;;17.20;2.23;;;7.10;74.90;;;;;;5078046;28;20117;-76
2021/04/07 12:33:17;;;;;;;12.63;1.70;;;7.10;75.30;;;;;;5061675;28;20483;-77
2021/04/07 12:35:43;;;;;;;12.87;1.90;;;6.80;77.90;;;;;;5061498;28;20024;-79
2021/04/07 12:38:09;;;;;;;17.50;2.57;;;6.60;78.50;;;;;;5095881;28;20036;-77
2021/04/07 12:40:35;;;;;;;8.77;1.23;;;6.50;79.10;;;;;;5077777;28;20028;-79
2021/04/07 12:43:01;;;;;;;12.33;1.83;;;6.40;78.40;;;;;;5044067;28;20027;-77
2021/04/07 12:45:26;;;;;;;12.73;1.17;;;6.50;79.10;;;;;;5077896;28;20476;-79
2021/04/07 12:47:52;;;;;;;16.70;1.97;;;6.60;78.80;;;;;;5095480;28;20378;-81
2021/04/07 12:50:18;;;;;;;9.33;1.10;;;6.70;79.40;;;;;;5077531;28;20035;-79
2021/04/07 12:52:44;;;;;;;12.67;2.03;;;7.00;78.80;;;;;;5095403;28;20028;-79
2021/04/07 12:55:10;;;;;;;14.63;2.00;;;7.60;79.30;;;;;;5060666;28;20028;-77
2021/04/07 12:57:36;;;;;;;7.63;1.17;;;8.30;77.30;;;;;;5060491;28;20024;-78
2021/04/07 13:00:02;;;;;;;8.63;1.33;;;8.90;74.70;;;;;;5060431;28;20085;-78
2021/04/07 13:02:28;;;;;;;14.93;2.40;;;9.20;71.70;;;;;;5060658;28;20024;-75
2021/04/07 13:04:53;;;;;;;11.03;1.73;;;9.00;69.80;;;;;;5043909;28;20016;-74
2021/04/07 13:07:19;;;;;;;16.83;2.20;;;8.70;69.60;;;;;;5076803;28;20024;-75